Time,TemperatureF,DewpointF,PressureIn,WindDirection,WindDirectionDegrees,WindSpeedMPH,WindSpeedGustMPH,Humidity,HourlyPrecipIn,Conditions,Clouds,dailyrainin,SolarRadiationWatts/m^2,SoftwareType,DateUTC
2013-11-30 00:52:00,35.0,26.0,-100.00,ESE,121,1.0,3.0,68,0.00,,,-99.99,0.000000,,2013-11-30 07:52:00,
2013-11-30 01:22:00,33.0,25.0,-100.00,ENE,62,1.0,3.0,72,0.00,,,-99.99,0.000000,,2013-11-30 08:22:00,
2013-11-30 02:50:00,29.0,24.0,-100.00,East,98,3.0,4.0,82,0.00,,,-99.99,0.000000,,2013-11-30 09:50:00,
2013-11-30 03:22:00,29.0,24.0,-100.00,East,98,3.0,4.0,82,0.00,,,-99.99,0.000000,,2013-11-30 10:22:00,
2013-11-30 03:33:00,29.0,24.0,-100.00,East,98,3.0,4.0,82,0.00,,,-99.99,0.000000,,2013-11-30 10:33:00,
2013-11-30 03:42:00,29.0,24.0,-100.00,East,98,3.0,4.0,82,0.00,,,-99.99,0.000000,,2013-11-30 10:42:00,
2013-11-30 07:50:00,28.0,24.0,-100.00,ESE,110,2.0,3.0,85,0.00,,,-99.99,12.000000,,2013-11-30 14:50:00,
2013-11-30 08:21:00,28.0,24.0,-100.00,ESE,110,2.0,3.0,85,0.00,,,-99.99,12.000000,,2013-11-30 15:21:00,
2013-11-30 08:33:00,28.0,24.0,-100.00,ESE,110,2.0,3.0,85,0.00,,,-99.99,12.000000,,2013-11-30 15:33:00,
2013-11-30 08:43:00,28.0,24.0,-100.00,ESE,110,2.0,3.0,85,0.00,,,-99.99,12.000000,,2013-11-30 15:43:00,
2013-11-30 09:23:00,34.0,27.0,-100.00,West,266,3.0,4.0,76,0.00,,,-99.99,205.000000,,2013-11-30 16:23:00,
2013-11-30 12:50:00,45.0,29.0,-100.00,NW,313,4.0,6.0,53,0.00,,,-99.99,465.000000,,2013-11-30 19:50:00,
2013-11-30 13:22:00,45.0,29.0,-100.00,NW,313,4.0,6.0,53,0.00,,,-99.99,465.000000,,2013-11-30 20:22:00,
2013-11-30 13:31:00,45.0,29.0,-100.00,NW,313,4.0,6.0,53,0.00,,,-99.99,465.000000,,2013-11-30 20:31:00,
2013-11-30 13:42:00,45.0,29.0,-100.00,NW,313,4.0,6.0,53,0.00,,,-99.99,465.000000,,2013-11-30 20:42:00,
2013-11-30 17:21:00,44.0,28.0,-100.00,WNW,303,4.0,4.0,52,0.00,,,-99.99,6.000000,,2013-12-01 00:21:00,
2013-11-30 17:50:00,39.0,29.0,-100.00,ESE,103,4.0,6.0,67,0.00,,,-99.99,0.000000,,2013-12-01 00:50:00,
2013-11-30 17:51:00,41.0,27.0,-100.00,SSE,152,1.0,2.0,59,0.00,,,-99.99,0.000000,,2013-12-01 00:51:00,
2013-11-30 18:21:00,39.0,29.0,-100.00,ESE,103,4.0,6.0,67,0.00,,,-99.99,0.000000,,2013-12-01 01:21:00,
2013-11-30 18:32:00,39.0,29.0,-100.00,ESE,103,4.0,6.0,67,0.00,,,-99.99,0.000000,,2013-12-01 01:32:00,
2013-11-30 18:42:00,39.0,29.0,-100.00,ESE,103,4.0,6.0,67,0.00,,,-99.99,0.000000,,2013-12-01 01:42:00,
2013-11-30 21:02:00,-999.0,-99.9,-100.00,WNW,283,0.0,1.0,-999,0.00,,,-99.99,,,2013-12-01 04:02:00,
2013-11-30 21:52:00,32.0,26.0,-100.00,SW,214,0.0,2.0,77,0.00,,,-99.99,0.000000,,2013-12-01 04:52:00,
2013-11-30 22:22:00,31.0,27.0,-100.00,NNW,329,3.0,3.0,82,0.00,,,-99.99,0.000000,,2013-12-01 05:22:00,
2013-11-30 22:50:00,33.0,26.0,-100.00,ENE,65,3.0,3.0,75,0.00,,,-99.99,0.000000,,2013-12-01 05:50:00,
2013-11-30 22:52:00,34.0,27.0,-100.00,East,92,4.0,4.0,76,0.00,,,-99.99,0.000000,,2013-12-01 05:52:00,
2013-11-30 23:22:00,33.0,26.0,-100.00,ENE,65,3.0,3.0,75,0.00,,,-99.99,0.000000,,2013-12-01 06:22:00,
2013-11-30 23:32:00,33.0,26.0,-100.00,ENE,65,3.0,3.0,75,0.00,,,-99.99,0.000000,,2013-12-01 06:32:00,
2013-11-30 23:42:00,33.0,26.0,-100.00,ENE,65,3.0,3.0,75,0.00,,,-99.99,0.000000,,2013-12-01 06:42:00,